Time;durP1;ratioP1;P1;durP2;ratioP2;P2;SDS_P1;SDS_P2;PMS_P1;PMS_P2;Temp;Humidity;BMP_temperature;BMP_pressure;BME280_temperature;BME280_humidity;BME280_pressure;Samples;Min_cycle;Max_cycle;Signal;HPM_P1;HPM_P2
2022/07/19 00:00:46;;;;;;;3.20;1.67;;;23.50;20.20;;;;;;10415252;28;20229;-72
2022/07/19 00:05:51;;;;;;;2.27;1.80;;;23.40;20.50;;;;;;10422637;28;20229;-72
2022/07/19 00:10:54;;;;;;;1.87;1.77;;;23.30;20.80;;;;;;10416304;28;20316;-72
2022/07/19 00:15:59;;;;;;;1.77;1.67;;;23.20;20.50;;;;;;10416493;28;20328;-72
2022/07/19 00:21:04;;;;;;;3.20;1.77;;;23.20;20.70;;;;;;10408828;28;20312;-72
2022/07/19 00:26:07;;;;;;;1.77;1.60;;;23.20;21.30;;;;;;10414171;28;20239;-72
2022/07/19 00:31:11;;;;;;;2.23;2.00;;;23.20;21.20;;;;;;10413422;28;20313;-72
2022/07/19 00:36:15;;;;;;;4.63;1.90;;;23.20;21.20;;;;;;10416889;28;20255;-72
2022/07/19 00:41:19;;;;;;;2.37;2.07;;;23.00;21.30;;;;;;10415411;28;20247;-72
2022/07/19 00:46:23;;;;;;;2.00;1.90;;;22.90;21.20;;;;;;10411729;28;20697;-72
2022/07/19 00:51:28;;;;;;;2.10;1.90;;;22.70;21.30;;;;;;10415404;28;20324;-73
2022/07/19 00:56:34;;;;;;;2.80;2.10;;;22.70;21.90;;;;;;10411896;28;20926;-72
2022/07/19 01:01:38;;;;;;;2.53;1.40;;;22.70;22.20;;;;;;10411626;28;20241;-72
2022/07/19 01:06:43;;;;;;;1.70;1.60;;;22.60;21.60;;;;;;10415472;28;20233;-72
2022/07/19 01:11:47;;;;;;;3.17;1.60;;;22.50;22.60;;;;;;10415459;28;20330;-73
2022/07/19 01:16:50;;;;;;;1.70;1.60;;;22.50;22.20;;;;;;10408531;28;20225;-72
2022/07/19 01:21:55;;;;;;;4.80;1.77;;;22.50;22.00;;;;;;10419278;28;20251;-72
2022/07/19 01:26:59;;;;;;;3.23;2.30;;;22.40;22.60;;;;;;10415942;28;20236;-72
2022/07/19 01:32:02;;;;;;;1.83;1.73;;;22.30;22.20;;;;;;10418541;28;20240;-72
2022/07/19 01:37:07;;;;;;;2.40;2.00;;;22.30;22.40;;;;;;10424987;28;20245;-72
2022/07/19 01:42:10;;;;;;;2.03;1.93;;;22.30;22.90;;;;;;10418095;28;20230;-72
2022/07/19 01:47:13;;;;;;;2.13;2.03;;;22.30;22.60;;;;;;10418680;28;20317;-72
2022/07/19 01:52:18;;;;;;;2.30;2.10;;;22.30;22.60;;;;;;10424740;28;20221;-73
2022/07/19 01:57:21;;;;;;;1.90;1.80;;;22.20;23.10;;;;;;10419609;28;20236;-72
2022/07/19 02:02:25;;;;;;;2.47;1.97;;;22.20;22.80;;;;;;10420519;28;20228;-72
2022/07/19 02:07:29;;;;;;;1.90;1.80;;;22.10;22.60;;;;;;10419108;28;20560;-72
2022/07/19 02:12:33;;;;;;;2.27;1.83;;;22.10;23.20;;;;;;10420140;28;20232;-72
2022/07/19 02:17:36;;;;;;;2.20;1.93;;;22.00;22.90;;;;;;10442922;22;20597;-74
2022/07/19 02:22:41;;;;;;;2.50;2.03;;;22.00;23.10;;;;;;10428666;28;20235;-74
2022/07/19 02:27:44;;;;;;;2.20;2.00;;;21.90;23.30;;;;;;10430505;28;20233;-74
2022/07/19 02:32:48;;;;;;;1.90;1.70;;;21.90;23.00;;;;;;10419313;28;20716;-74
2022/07/19 02:37:52;;;;;;;1.77;1.67;;;21.90;23.00;;;;;;10419536;28;20239;-74
2022/07/19 02:42:55;;;;;;;2.07;1.93;;;21.80;23.40;;;;;;10423672;28;20276;-74
2022/07/19 02:48:00;;;;;;;3.03;2.17;;;21.70;23.00;;;;;;10430212;28;20225;-74
2022/07/19 02:53:05;;;;;;;3.30;2.10;;;21.60;23.30;;;;;;10419893;28;20236;-74
2022/07/19 02:58:08;;;;;;;1.83;1.73;;;21.50;23.70;;;;;;10426610;28;20220;-74
2022/07/19 03:08:33;;;;;;;2.30;2.10;;;21.20;23.60;;;;;;10427581;28;20599;-74
2022/07/19 03:13:36;;;;;;;2.00;1.90;;;21.10;24.20;;;;;;10429870;28;20229;-74
2022/07/19 03:18:40;;;;;;;2.10;1.97;;;21.10;23.80;;;;;;10417903;28;20260;-74
2022/07/19 03:23:44;;;;;;;2.30;2.10;;;21.00;23.80;;;;;;10429294;28;20233;-74
2022/07/19 03:28:48;;;;;;;2.30;2.10;;;21.00;24.50;;;;;;10434482;28;20230;-74
2022/07/19 03:33:51;;;;;;;2.20;1.90;;;20.90;24.20;;;;;;10430187;28;20619;-74
2022/07/19 03:38:56;;;;;;;3.77;2.20;;;20.90;24.30;;;;;;10434352;28;20223;-74
2022/07/19 03:43:59;;;;;;;4.73;2.30;;;20.90;24.90;;;;;;10425001;28;20230;-74
2022/07/19 03:49:02;;;;;;;5.50;2.00;;;20.70;24.50;;;;;;10433962;28;20221;-74
2022/07/19 03:54:07;;;;;;;2.17;1.80;;;20.50;24.50;;;;;;10432893;28;20237;-74
2022/07/19 03:59:10;;;;;;;2.30;2.10;;;20.40;25.10;;;;;;10424635;28;20232;-74
2022/07/19 04:04:13;;;;;;;1.97;1.80;;;20.40;24.90;;;;;;10433041;28;20225;-74
2022/07/19 04:09:18;;;;;;;3.13;1.80;;;20.40;24.90;;;;;;10423614;28;20236;-74
2022/07/19 04:14:21;;;;;;;5.87;1.87;;;20.40;25.60;;;;;;10426220;28;20229;-74
2022/07/19 04:19:24;;;;;;;2.13;1.90;;;20.40;25.30;;;;;;10425022;28;20726;-74
2022/07/19 04:24:29;;;;;;;4.13;1.80;;;20.40;25.20;;;;;;10425836;28;20750;-74
2022/07/19 04:29:32;;;;;;;2.50;2.30;;;20.40;25.60;;;;;;10426753;28;20248;-74
2022/07/19 04:34:36;;;;;;;2.50;2.30;;;20.40;25.60;;;;;;10421819;28;20233;-74
2022/07/19 04:39:40;;;;;;;2.30;2.10;;;20.40;25.60;;;;;;10425325;28;20225;-74
2022/07/19 04:44:44;;;;;;;2.63;2.43;;;20.50;25.70;;;;;;10416655;28;20714;-73
2022/07/19 04:49:47;;;;;;;2.23;2.03;;;20.50;25.60;;;;;;10424111;28;20232;-72
2022/07/19 04:54:51;;;;;;;2.73;2.50;;;20.50;25.60;;;;;;10428000;28;20230;-72
2022/07/19 04:59:55;;;;;;;3.33;2.13;;;20.60;26.40;;;;;;10430784;28;20247;-72
2022/07/19 05:04:58;;;;;;;2.90;2.60;;;20.60;25.70;;;;;;10424471;28;20229;-72
2022/07/19 05:10:03;;;;;;;2.67;2.17;;;20.60;25.70;;;;;;10425477;28;20616;-73
2022/07/19 05:15:07;;;;;;;2.70;2.50;;;20.60;26.20;;;;;;10424425;28;20229;-73
2022/07/19 05:20:17;;;;;;;3.43;2.40;;;20.70;26.00;;;;;;10419935;28;20218;-73
2022/07/19 05:25:23;;;;;;;3.00;2.70;;;20.80;26.00;;;;;;10421378;28;20221;-73
2022/07/19 05:30:29;;;;;;;3.43;3.10;;;20.90;26.50;;;;;;10422795;28;20228;-74
2022/07/19 05:35:32;;;;;;;4.40;2.50;;;21.00;26.50;;;;;;10426304;28;20229;-74
2022/07/19 05:40:37;;;;;;;3.37;3.07;;;21.20;26.10;;;;;;10425688;28;20225;-73
2022/07/19 05:45:40;;;;;;;5.27;2.67;;;21.30;26.50;;;;;;10420741;28;20240;-74
2022/07/19 05:50:43;;;;;;;2.60;2.40;;;21.50;26.30;;;;;;10423735;28;20771;-73
2022/07/19 05:55:48;;;;;;;4.83;2.40;;;21.60;26.40;;;;;;10422890;28;20252;-73
2022/07/19 06:06:13;;;;;;;2.70;2.50;;;22.00;26.70;;;;;;10421263;28;20233;-74
2022/07/19 06:11:18;;;;;;;2.80;1.97;;;22.20;26.80;;;;;;10419876;28;20755;-74
2022/07/19 06:16:22;;;;;;;4.07;2.20;;;22.50;27.00;;;;;;10420594;28;20236;-73
2022/07/19 06:21:25;;;;;;;2.43;2.20;;;22.70;27.10;;;;;;10427355;28;20222;-74
2022/07/19 06:26:30;;;;;;;3.47;2.40;;;22.90;27.30;;;;;;10424742;28;20689;-74
2022/07/19 06:31:33;;;;;;;3.00;2.50;;;23.10;27.40;;;;;;10418601;28;20233;-74
2022/07/19 06:36:37;;;;;;;2.47;2.27;;;23.30;27.30;;;;;;10417937;28;20321;-74
2022/07/19 06:41:42;;;;;;;2.60;2.40;;;23.50;27.20;;;;;;10417673;28;20308;-74
2022/07/19 06:46:46;;;;;;;2.47;2.20;;;23.80;27.90;;;;;;10424565;28;20694;-74
2022/07/19 06:51:57;;;;;;;2.43;2.10;;;24.00;27.30;;;;;;10412866;28;20689;-73
2022/07/19 06:57:01;;;;;;;5.83;2.37;;;24.30;27.40;;;;;;10423087;28;20758;-74
2022/07/19 07:02:05;;;;;;;3.47;2.07;;;24.50;27.50;;;;;;10425841;28;20717;-73
2022/07/19 07:07:08;;;;;;;5.57;1.77;;;24.80;26.90;;;;;;10416281;28;20327;-74
2022/07/19 07:12:13;;;;;;;4.60;2.10;;;25.10;26.70;;;;;;10423358;28;20223;-74
2022/07/19 07:17:16;;;;;;;3.03;1.80;;;25.40;26.50;;;;;;10421076;28;20709;-74
2022/07/19 07:22:19;;;;;;;2.43;1.90;;;25.80;25.90;;;;;;10419865;28;20218;-73
2022/07/19 07:27:24;;;;;;;1.87;1.60;;;26.10;25.40;;;;;;10417770;28;20236;-73
2022/07/19 07:32:27;;;;;;;1.90;1.80;;;26.40;24.80;;;;;;10421131;28;20248;-74
2022/07/19 07:37:31;;;;;;;1.97;1.80;;;26.70;24.50;;;;;;10417929;28;20229;-74
2022/07/19 07:42:35;;;;;;;1.70;1.60;;;27.10;24.10;;;;;;10429200;28;20803;-74
2022/07/19 07:47:38;;;;;;;4.43;1.87;;;27.40;23.30;;;;;;10425048;28;20251;-74
2022/07/19 07:52:42;;;;;;;1.50;1.40;;;27.70;23.40;;;;;;10423874;28;20591;-74
2022/07/19 07:57:46;;;;;;;1.40;1.30;;;28.00;22.80;;;;;;10423142;28;20235;-73
2022/07/19 08:02:49;;;;;;;1.93;1.43;;;28.30;22.50;;;;;;10432352;28;20225;-73
2022/07/19 08:07:53;;;;;;;1.60;1.50;;;28.60;21.70;;;;;;10423362;28;20225;-73
2022/07/19 08:12:58;;;;;;;2.20;1.40;;;28.80;21.40;;;;;;10422314;28;20221;-74
2022/07/19 08:18:09;;;;;;;1.60;1.50;;;29.10;21.00;;;;;;10423310;28;20228;-74
2022/07/19 08:23:12;;;;;;;1.60;1.50;;;29.40;20.80;;;;;;10427205;28;20316;-73
2022/07/19 08:28:17;;;;;;;1.50;1.40;;;29.60;20.90;;;;;;10423375;28;20229;-73
2022/07/19 08:33:20;;;;;;;1.50;1.40;;;29.90;20.20;;;;;;10420517;28;20297;-74
2022/07/19 08:38:23;;;;;;;2.03;1.63;;;30.20;20.30;;;;;;10434102;28;20231;-73
2022/07/19 08:43:31;;;;;;;1.70;1.60;;;30.50;19.70;;;;;;10428421;28;20228;-73
2022/07/19 08:48:36;;;;;;;2.20;1.50;;;30.70;19.00;;;;;;10417303;28;20233;-73
2022/07/19 08:53:49;;;;;;;1.70;1.60;;;31.00;19.00;;;;;;10428369;28;20220;-73
2022/07/19 08:58:54;;;;;;;2.90;1.70;;;31.20;18.60;;;;;;10422518;28;20225;-73
2022/07/19 09:04:05;;;;;;;1.63;1.53;;;31.50;18.20;;;;;;10422593;28;20313;-74
2022/07/19 09:09:09;;;;;;;1.67;1.57;;;31.70;17.30;;;;;;10418791;28;20230;-73
2022/07/19 09:14:14;;;;;;;1.80;1.70;;;31.90;17.60;;;;;;10419662;28;20225;-73
2022/07/19 09:19:18;;;;;;;1.80;1.70;;;32.10;16.80;;;;;;10422373;28;20227;-74
2022/07/19 09:24:21;;;;;;;1.83;1.73;;;32.30;17.00;;;;;;10425417;28;20240;-74
2022/07/19 09:29:27;;;;;;;3.03;1.63;;;32.40;16.60;;;;;;10419037;28;20220;-73
2022/07/19 09:34:31;;;;;;;1.80;1.70;;;32.50;15.90;;;;;;10422252;28;20233;-73
2022/07/19 09:39:35;;;;;;;1.77;1.67;;;32.60;16.10;;;;;;10422159;28;20230;-74
2022/07/19 09:44:40;;;;;;;4.20;2.00;;;32.70;16.00;;;;;;10424484;28;20240;-73
2022/07/19 09:49:43;;;;;;;1.87;1.77;;;32.80;15.20;;;;;;10428306;28;20639;-73
2022/07/19 09:54:46;;;;;;;2.80;1.90;;;32.80;15.30;;;;;;10415969;28;20227;-74
2022/07/19 09:59:54;;;;;;;2.00;1.80;;;32.90;15.30;;;;;;10412702;28;20244;-74
2022/07/19 10:04:58;;;;;;;2.67;1.80;;;33.00;14.80;;;;;;10424053;28;20222;-73
2022/07/19 10:10:03;;;;;;;2.00;1.80;;;33.10;14.80;;;;;;10423331;28;20229;-73
2022/07/19 10:15:10;;;;;;;1.87;1.77;;;33.30;14.10;;;;;;10420506;28;20236;-73
2022/07/19 10:20:17;;;;;;;2.20;1.90;;;33.40;13.90;;;;;;10413101;28;20346;-73
2022/07/19 10:25:20;;;;;;;3.07;2.03;;;33.50;13.70;;;;;;10422670;28;20233;-73
2022/07/19 10:30:26;;;;;;;1.80;1.70;;;33.60;14.40;;;;;;10415679;28;20232;-73
2022/07/19 10:35:31;;;;;;;2.00;1.90;;;33.70;13.30;;;;;;10419969;28;20707;-74
2022/07/19 10:40:40;;;;;;;2.10;2.00;;;33.90;13.30;;;;;;10420174;28;20231;-73
2022/07/19 10:46:09;;;;;;;1.97;1.87;;;33.90;12.50;;;;;;10424013;28;20233;-74
2022/07/19 10:51:14;;;;;;;4.33;2.40;;;34.00;13.40;;;;;;10420819;28;20229;-73
2022/07/19 10:56:20;;;;;;;1.97;1.87;;;34.20;12.80;;;;;;10418986;28;20636;-73
2022/07/19 11:01:27;;;;;;;2.60;2.07;;;34.30;13.10;;;;;;10417518;28;20229;-73
2022/07/19 11:06:31;;;;;;;2.30;2.13;;;34.40;12.40;;;;;;10412640;28;20233;-72
2022/07/19 11:11:34;;;;;;;2.30;1.83;;;34.40;12.80;;;;;;10416275;28;20230;-72
2022/07/19 11:16:41;;;;;;;2.40;2.20;;;34.50;12.60;;;;;;10420178;28;20753;-72
2022/07/19 11:21:45;;;;;;;2.10;1.90;;;34.60;12.10;;;;;;10430516;28;20229;-73
2022/07/19 11:26:49;;;;;;;2.40;2.20;;;34.60;12.20;;;;;;10431791;28;20587;-73
2022/07/19 11:31:56;;;;;;;2.20;2.07;;;34.70;12.30;;;;;;10429467;28;20754;-73
2022/07/19 11:36:59;;;;;;;2.30;2.20;;;34.90;11.70;;;;;;10424347;28;20233;-73
2022/07/19 11:42:03;;;;;;;2.10;2.00;;;34.90;11.80;;;;;;10427921;28;20277;-73
2022/07/19 11:47:08;;;;;;;2.50;2.30;;;35.10;11.80;;;;;;10423790;28;20741;-73
2022/07/19 11:52:11;;;;;;;2.43;2.30;;;35.10;11.00;;;;;;10415314;28;20727;-72
2022/07/19 11:57:24;;;;;;;2.60;2.40;;;35.20;11.30;;;;;;10426817;28;20221;-73
2022/07/19 12:02:28;;;;;;;2.50;2.40;;;35.30;10.70;;;;;;10428907;28;20236;-73
2022/07/19 12:07:32;;;;;;;2.53;2.00;;;35.40;10.70;;;;;;10422646;28;20227;-73
2022/07/19 12:12:41;;;;;;;2.63;2.43;;;35.50;10.80;;;;;;10426669;28;20326;-75
2022/07/19 12:17:57;;;;;;;5.37;2.37;;;35.60;9.90;;;;;;10413106;28;20237;-74
2022/07/19 12:23:12;;;;;;;2.67;2.47;;;35.70;9.80;;;;;;10428380;28;20219;-72
2022/07/19 12:28:16;;;;;;;2.13;2.00;;;35.70;9.80;;;;;;10429314;28;20242;-72
2022/07/19 12:33:26;;;;;;;2.60;2.40;;;35.80;10.00;;;;;;10426925;28;20224;-72
2022/07/19 12:38:32;;;;;;;2.60;2.40;;;35.80;9.10;;;;;;10423686;28;20240;-74
2022/07/19 12:43:35;;;;;;;2.43;2.27;;;35.90;9.20;;;;;;10427857;28;20231;-73
2022/07/19 12:48:40;;;;;;;2.27;2.10;;;35.90;9.40;;;;;;10432128;28;20243;-73
2022/07/19 12:53:43;;;;;;;2.23;2.13;;;36.00;8.90;;;;;;10427612;28;20231;-72
2022/07/19 13:04:09;;;;;;;2.50;2.30;;;36.00;9.20;;;;;;10425921;28;20216;-73
2022/07/19 13:09:12;;;;;;;3.90;2.50;;;36.00;9.10;;;;;;10416000;28;20225;-74
2022/07/19 13:14:15;;;;;;;2.83;2.30;;;36.00;9.10;;;;;;10423799;28;20218;-74
2022/07/19 13:19:20;;;;;;;2.33;2.13;;;36.10;9.30;;;;;;10422237;28;20252;-74
2022/07/19 13:24:23;;;;;;;2.40;2.20;;;36.10;8.90;;;;;;10420757;28;20879;-74
2022/07/19 13:29:46;;;;;;;2.07;1.90;;;36.20;8.80;;;;;;10434267;28;20257;-74
2022/07/19 13:34:51;;;;;;;2.60;2.10;;;36.30;8.40;;;;;;10425431;28;20221;-73
2022/07/19 13:39:54;;;;;;;2.50;2.30;;;36.30;8.30;;;;;;10428732;28;20228;-74
2022/07/19 13:44:57;;;;;;;3.20;2.20;;;36.30;8.30;;;;;;10424799;28;20623;-74
2022/07/19 13:50:02;;;;;;;2.40;2.20;;;36.40;8.40;;;;;;10431468;28;20606;-74
2022/07/19 13:55:06;;;;;;;2.30;2.17;;;36.40;7.80;;;;;;10420585;28;20233;-74
2022/07/19 14:00:11;;;;;;;2.33;2.13;;;36.40;7.80;;;;;;10418195;28;20712;-74
2022/07/19 14:05:16;;;;;;;3.40;2.20;;;36.40;7.60;;;;;;10424148;28;20298;-74
2022/07/19 14:10:19;;;;;;;2.50;2.30;;;36.40;7.70;;;;;;10419852;28;20223;-73
2022/07/19 14:15:22;;;;;;;1.90;1.80;;;36.50;8.10;;;;;;10418599;28;20234;-73
2022/07/19 14:20:28;;;;;;;2.40;2.20;;;36.50;7.90;;;;;;10417558;28;20267;-73
2022/07/19 14:25:31;;;;;;;2.30;2.20;;;36.60;7.20;;;;;;10421683;28;20233;-73
2022/07/19 14:30:34;;;;;;;2.70;2.50;;;36.60;7.50;;;;;;10422405;28;20247;-73
2022/07/19 14:35:39;;;;;;;2.20;2.00;;;36.60;7.40;;;;;;10422410;28;20225;-73
2022/07/19 14:40:42;;;;;;;2.30;2.20;;;36.60;7.10;;;;;;10419358;28;20239;-74
2022/07/19 14:45:45;;;;;;;4.40;2.30;;;36.60;7.20;;;;;;10423939;28;20228;-73
2022/07/19 14:50:51;;;;;;;4.37;2.27;;;36.70;6.90;;;;;;10420946;28;20244;-73
2022/07/19 14:55:54;;;;;;;2.50;2.30;;;36.70;6.50;;;;;;10417820;28;20225;-73
2022/07/19 15:00:57;;;;;;;3.97;2.40;;;36.70;6.70;;;;;;10423885;28;20240;-73
2022/07/19 15:06:02;;;;;;;2.83;2.43;;;36.60;6.60;;;;;;10422069;28;20235;-73
2022/07/19 15:11:06;;;;;;;3.03;2.33;;;36.60;6.60;;;;;;10421161;28;20565;-73
2022/07/19 15:16:09;;;;;;;2.53;2.33;;;36.70;6.80;;;;;;10419413;28;20236;-73
2022/07/19 15:21:14;;;;;;;3.10;2.47;;;36.70;6.60;;;;;;10425785;28;20229;-73
2022/07/19 15:26:17;;;;;;;2.70;2.50;;;36.60;6.20;;;;;;10416067;28;20237;-73
2022/07/19 15:31:20;;;;;;;3.10;2.60;;;36.70;6.60;;;;;;10420221;28;20603;-73
2022/07/19 15:36:25;;;;;;;4.13;2.70;;;36.70;6.40;;;;;;10419507;28;20235;-73
2022/07/19 15:41:28;;;;;;;3.20;2.53;;;36.70;6.10;;;;;;10428892;28;20221;-73
2022/07/19 15:46:32;;;;;;;4.03;2.57;;;36.70;6.40;;;;;;10422454;28;20229;-74
2022/07/19 15:51:45;;;;;;;2.57;2.37;;;36.70;6.20;;;;;;10423565;28;20222;-74
2022/07/19 15:56:49;;;;;;;2.53;2.40;;;36.80;6.30;;;;;;10415761;28;20225;-74
2022/07/19 16:01:52;;;;;;;3.70;2.63;;;36.90;6.50;;;;;;10418253;28;20228;-73
2022/07/19 16:06:56;;;;;;;2.63;2.43;;;36.80;6.40;;;;;;10421184;28;20221;-73
2022/07/19 16:11:59;;;;;;;2.90;2.70;;;36.90;6.00;;;;;;10422323;28;20218;-73
2022/07/19 16:17:03;;;;;;;3.17;2.87;;;36.80;6.20;;;;;;10421790;28;20225;-73
2022/07/19 16:22:07;;;;;;;2.80;2.60;;;36.80;6.30;;;;;;10419766;28;20239;-73
2022/07/19 16:27:11;;;;;;;4.67;2.90;;;36.70;6.00;;;;;;10423001;28;20254;-73
2022/07/19 16:32:24;;;;;;;2.77;2.50;;;36.70;5.90;;;;;;10425477;28;20224;-73
2022/07/19 16:37:30;;;;;;;2.73;2.53;;;36.50;5.90;;;;;;10412350;28;20730;-73
2022/07/19 16:42:33;;;;;;;2.90;2.70;;;36.50;5.90;;;;;;10420488;28;20230;-73
2022/07/19 16:47:56;;;;;;;3.00;2.70;;;36.40;6.30;;;;;;10424064;28;20232;-73
2022/07/19 16:53:01;;;;;;;2.60;2.40;;;36.40;6.50;;;;;;10426771;28;20820;-73
2022/07/19 16:58:05;;;;;;;3.23;2.93;;;36.40;6.20;;;;;;10430217;28;20231;-73
2022/07/19 17:03:09;;;;;;;3.87;3.20;;;36.50;6.40;;;;;;10426800;28;20232;-72
2022/07/19 17:08:13;;;;;;;3.03;2.83;;;36.40;6.40;;;;;;10424226;28;20228;-72
2022/07/19 17:13:16;;;;;;;3.37;2.87;;;36.40;6.20;;;;;;10420210;28;20229;-73
2022/07/19 17:18:20;;;;;;;3.47;2.80;;;36.40;6.40;;;;;;10416398;28;20247;-72
2022/07/19 17:23:24;;;;;;;2.90;2.70;;;36.30;6.30;;;;;;10423040;28;20231;-72
2022/07/19 17:28:28;;;;;;;2.90;2.70;;;36.30;6.10;;;;;;10424975;28;20232;-73
2022/07/19 17:33:31;;;;;;;2.53;2.33;;;36.30;6.40;;;;;;10423436;28;20233;-72
2022/07/19 17:38:36;;;;;;;2.77;2.57;;;36.20;6.30;;;;;;10421941;28;20606;-72
2022/07/19 17:43:40;;;;;;;3.53;2.50;;;36.10;6.20;;;;;;10422527;28;20239;-73
2022/07/19 17:48:43;;;;;;;2.87;2.57;;;36.00;7.00;;;;;;10416634;28;20238;-72
2022/07/19 17:53:52;;;;;;;2.73;2.53;;;36.00;6.30;;;;;;10419506;28;21473;-73
2022/07/19 17:58:56;;;;;;;2.63;2.43;;;35.90;6.30;;;;;;10415584;28;20238;-73
2022/07/19 18:03:59;;;;;;;2.90;2.70;;;35.90;6.20;;;;;;10426231;28;20224;-72
2022/07/19 18:09:05;;;;;;;3.07;2.60;;;35.90;6.30;;;;;;10422676;28;20246;-73
2022/07/19 18:14:09;;;;;;;2.67;2.47;;;35.80;6.20;;;;;;10422992;28;20223;-72
2022/07/19 18:19:12;;;;;;;2.63;2.43;;;35.70;6.40;;;;;;10417672;28;20241;-72
2022/07/19 18:24:17;;;;;;;2.27;2.17;;;35.60;6.50;;;;;;10419290;28;20222;-71
2022/07/19 18:29:21;;;;;;;2.73;2.20;;;35.40;6.70;;;;;;10418439;28;20236;-71
2022/07/19 18:34:25;;;;;;;2.50;2.30;;;35.40;6.90;;;;;;10419278;28;20259;-71
2022/07/19 18:39:29;;;;;;;2.43;2.23;;;35.30;7.00;;;;;;10413364;28;20225;-73
2022/07/19 18:44:32;;;;;;;2.27;2.17;;;35.20;6.90;;;;;;10421271;28;20319;-72
2022/07/19 18:49:38;;;;;;;2.50;2.30;;;35.10;7.00;;;;;;10415216;28;20780;-72
2022/07/19 18:54:43;;;;;;;2.40;2.20;;;35.00;7.40;;;;;;10418791;28;20231;-71
2022/07/19 18:59:46;;;;;;;3.13;2.47;;;34.90;7.60;;;;;;10418398;28;20249;-71
2022/07/19 19:04:52;;;;;;;2.77;2.50;;;34.80;8.10;;;;;;10427071;28;20542;-71
2022/07/19 19:09:57;;;;;;;3.03;2.60;;;34.70;8.20;;;;;;10425045;28;20254;-71
2022/07/19 19:15:00;;;;;;;3.57;2.93;;;34.50;8.50;;;;;;10420018;28;20229;-71
2022/07/19 19:20:06;;;;;;;3.67;2.50;;;34.30;8.50;;;;;;10430611;28;20341;-71
2022/07/19 19:25:11;;;;;;;2.90;2.60;;;34.10;8.90;;;;;;10416269;28;20232;-71
2022/07/19 19:30:17;;;;;;;2.73;2.50;;;33.90;9.40;;;;;;10421286;28;20686;-70
2022/07/19 19:35:20;;;;;;;3.03;2.40;;;33.70;9.70;;;;;;10412946;28;20604;-71
2022/07/19 19:40:25;;;;;;;3.73;2.50;;;33.50;10.00;;;;;;10426484;28;20264;-71
2022/07/19 19:45:28;;;;;;;3.67;2.77;;;33.30;10.20;;;;;;10423085;28;20228;-71
2022/07/19 19:50:32;;;;;;;2.87;2.63;;;33.20;10.20;;;;;;10429762;28;20234;-71
2022/07/19 19:55:37;;;;;;;3.03;2.83;;;33.00;10.60;;;;;;10424966;28;20240;-72
2022/07/19 20:00:40;;;;;;;3.93;2.67;;;32.80;11.00;;;;;;10431742;28;20584;-71
2022/07/19 20:05:44;;;;;;;3.77;2.87;;;32.70;10.90;;;;;;10420784;28;20237;-70
2022/07/19 20:10:53;;;;;;;3.03;2.73;;;32.50;11.20;;;;;;10432888;28;20242;-70
2022/07/19 20:15:56;;;;;;;4.83;3.17;;;32.40;11.80;;;;;;10429732;28;21044;-70
2022/07/19 20:21:15;;;;;;;4.70;3.50;;;32.20;11.70;;;;;;10432315;28;20217;-70
2022/07/19 20:26:19;;;;;;;6.03;3.10;;;32.10;11.60;;;;;;10432625;28;20229;-70
2022/07/19 20:31:23;;;;;;;3.13;2.83;;;31.90;11.50;;;;;;10433237;28;20235;-70
2022/07/19 20:36:26;;;;;;;2.77;2.50;;;31.70;11.90;;;;;;10423268;28;20244;-71
2022/07/19 20:41:31;;;;;;;3.20;2.77;;;31.60;12.10;;;;;;10425817;28;20225;-71
2022/07/19 20:46:34;;;;;;;3.23;2.60;;;31.40;12.50;;;;;;10421596;28;20256;-71
2022/07/19 20:51:38;;;;;;;3.60;2.60;;;31.20;12.40;;;;;;10424851;28;20224;-71
2022/07/19 20:56:42;;;;;;;3.57;2.63;;;31.10;12.70;;;;;;10427584;28;20261;-71
2022/07/19 21:01:46;;;;;;;3.37;2.70;;;30.90;13.10;;;;;;10422853;28;20229;-71
2022/07/19 21:06:49;;;;;;;3.40;2.50;;;30.80;13.10;;;;;;10421203;28;20233;-71
2022/07/19 21:11:54;;;;;;;4.60;3.00;;;30.60;13.20;;;;;;10420165;28;20282;-71
2022/07/19 21:16:57;;;;;;;4.63;2.70;;;30.40;13.50;;;;;;10425357;28;20233;-71
2022/07/19 21:22:00;;;;;;;4.97;2.80;;;30.20;13.40;;;;;;10422929;28;20225;-71
2022/07/19 21:27:05;;;;;;;5.03;2.70;;;30.00;13.60;;;;;;10416591;28;20263;-70
2022/07/19 21:32:08;;;;;;;5.23;2.70;;;29.80;14.20;;;;;;10427175;28;20722;-71
2022/07/19 21:37:11;;;;;;;7.60;2.80;;;29.60;14.10;;;;;;10420549;28;20225;-71
2022/07/19 21:42:16;;;;;;;3.67;2.47;;;29.40;14.30;;;;;;10429099;28;21227;-71
2022/07/19 21:47:19;;;;;;;4.53;2.90;;;29.20;14.80;;;;;;10415442;28;20236;-71
2022/07/19 21:52:22;;;;;;;4.73;2.80;;;29.10;14.60;;;;;;10425741;28;20236;-71
2022/07/19 21:57:27;;;;;;;3.43;2.60;;;29.00;14.90;;;;;;10422648;28;20252;-71
2022/07/19 22:02:30;;;;;;;3.30;2.60;;;28.90;15.20;;;;;;10429047;28;20226;-71
2022/07/19 22:07:34;;;;;;;6.23;2.53;;;28.70;15.20;;;;;;10429596;28;20240;-71
2022/07/19 22:12:39;;;;;;;6.27;2.77;;;28.60;15.20;;;;;;10418888;28;20228;-71
2022/07/19 22:17:42;;;;;;;5.00;2.57;;;28.40;15.70;;;;;;10427676;28;20235;-71
2022/07/19 22:22:45;;;;;;;3.77;2.70;;;28.30;15.30;;;;;;10424480;28;20228;-71
2022/07/19 22:27:50;;;;;;;5.07;2.70;;;28.10;15.50;;;;;;10429854;28;20228;-71
2022/07/19 22:32:53;;;;;;;3.00;2.60;;;28.00;16.20;;;;;;10430983;28;20236;-70
2022/07/19 22:37:56;;;;;;;4.70;2.77;;;27.80;16.10;;;;;;10421228;28;20239;-70
2022/07/19 22:43:00;;;;;;;3.00;2.43;;;27.70;16.00;;;;;;10431343;28;20222;-70
2022/07/19 22:48:05;;;;;;;3.17;2.70;;;27.50;16.50;;;;;;10431586;28;20229;-70
2022/07/19 22:53:10;;;;;;;3.30;2.20;;;27.40;16.50;;;;;;10417623;28;20306;-70
2022/07/19 22:58:15;;;;;;;2.70;2.23;;;27.20;16.50;;;;;;10425450;28;20243;-70
2022/07/19 23:03:18;;;;;;;2.47;2.20;;;27.00;17.20;;;;;;10418874;28;20222;-71
2022/07/19 23:08:22;;;;;;;2.77;2.40;;;26.80;16.80;;;;;;10414740;28;20247;-71
2022/07/19 23:13:26;;;;;;;3.17;2.70;;;26.70;17.10;;;;;;10436907;28;20233;-70
2022/07/19 23:18:30;;;;;;;2.60;2.40;;;26.60;17.60;;;;;;10428228;28;20221;-70
2022/07/19 23:23:33;;;;;;;2.97;2.37;;;26.50;17.60;;;;;;10429414;28;20233;-70
2022/07/19 23:28:38;;;;;;;3.10;2.20;;;26.40;17.90;;;;;;10438426;28;20739;-71
2022/07/19 23:33:41;;;;;;;3.43;2.40;;;26.30;18.40;;;;;;10439227;28;20303;-71
2022/07/19 23:38:44;;;;;;;2.63;2.43;;;26.20;18.10;;;;;;10434009;28;20226;-71
2022/07/19 23:43:50;;;;;;;4.50;2.70;;;26.00;18.10;;;;;;10442575;28;20328;-70
2022/07/19 23:48:53;;;;;;;2.77;2.53;;;25.90;19.00;;;;;;10433220;28;20335;-70
2022/07/19 23:53:56;;;;;;;3.13;2.17;;;25.80;18.90;;;;;;10429912;28;20230;-70
2022/07/19 23:59:00;;;;;;;2.67;2.47;;;25.60;18.90;;;;;;10430660;28;20221;-70
